Madison, WI

5:55 PM CST on December 03, 2016 (GMT -0600)
Atmospheric, Oceanic and Space Sciences Building | | Change Station
Active Advisory: Winter Weather Advisory

Elev 896 ft 43.07 °N, 89.41 °W | Updated 31 seconds ago

Overcast
Overcast
31.2 °F
Feels Like 27 °F
N
4.4
Wind Variable Wind from SSW

Today
High -- | Low -- °F
--% Chance of Precip.
Yesterday
High -- | Low -- °F
Precip. -- in
Pressure 30.31 in
Visibility 10.0 miles
Clouds Few 2500 ft
Overcast 3500 ft
Windchill 27 °F
Dew Point 24 °F
Humidity 73%
Rainfall 0.00 in
Snow Depth Not available.
7:12 AM 4:23 PM
Waxing Crescent, 18% visible
METAR KMSN 032353Z 00000KT 10SM FEW025 OVC035 00/M05 A3027 RMK AO2 SLP263 60000 T00001050 10006 21006 58006
Pressure 30.31 in
Visibility 10.0 miles
Clouds Few 2500 ft
Overcast 3500 ft
Windchill 27 °F
Dew Point 24 °F
Humidity 73%
Rainfall 0.00 in
Snow Depth Not available.
7:12 AM 4:23 PM
Waxing Crescent, 18% visible
METAR KMSN 032353Z 00000KT 10SM FEW025 OVC035 00/M05 A3027 RMK AO2 SLP263 60000 T00001050 10006 21006 58006

10-Day Weather Forecast

Almanac

Astronomy

Dec. 03, 2016 Rise Set
Actual Time
Civil Twilight
Nautical Twilight
Astronomical Twilight
Moon
Length of Visible Light
Length of Day
Tomorrow will be .
, % of the Moon is Illuminated

Today's Extremes

State Highs State Lows

Community

WunderPhotos

Upload Photos

1,955,536 photos uploaded!

WunderBlog® & News

Nearby

Air Quality

  Air Quality AQ Index Pollutant
Not available.

Snow Depth

Station Depth Elevation

Earthquake Activity

City Distance Mag. Time & Date
Minimum magnitude displayed is 2.5.

Coastal Water Temperatures

Place Temperature

Stations

Nearby Weather Stations

Station Location Temp. Windchill Dew Point Humidity Wind Precip. Elev Updated Type
                   

Watches & Warnings

Winter Weather Advisory
Issued: 1:55 PM CST Dec. 3, 2016 – National Weather Service

... Winter Weather Advisory in effect from 3 am to 6 PM CST
Sunday...

The National Weather Service in Milwaukee/Sullivan has issued a
Winter Weather Advisory for snow... which is in effect from 3 am
to 6 PM CST Sunday.

* Timing... starting after midnight near Darlington and Dodgeville.
Starting around 5 am at Madison.

* Snow accumulations... 3 to 4 inches.

* Winds... south at 10 mph gusting to 15 mph.

* Impacts... slippery spots on untreated roads creating hazardous
travel.

Precautionary/preparedness actions...

A Winter Weather Advisory for snow means that periods of snow
will cause primarily travel difficulties. Be prepared for snow
covered roads and limited visibilities... and use caution while
driving.